sensor_id;sensor_type;location;lat;lon;timestamp;pressure;altitude;pressure_sealevel;temperature;humidity
30636;BME280;17400;52.392;9.750;2022-10-31T00:01:30;101331.97;;;17.65;100.00
30636;BME280;17400;52.392;9.750;2022-10-31T00:04:00;101330.31;;;17.64;100.00
30636;BME280;17400;52.392;9.750;2022-10-31T00:06:28;101337.06;;;17.62;100.00
30636;BME280;17400;52.392;9.750;2022-10-31T00:08:58;101335.88;;;17.58;100.00
30636;BME280;17400;52.392;9.750;2022-10-31T00:11:28;101338.22;;;17.54;100.00
30636;BME280;17400;52.392;9.750;2022-10-31T00:13:56;101337.16;;;17.55;100.00
30636;BME280;17400;52.392;9.750;2022-10-31T00:16:25;101334.66;;;17.54;100.00
30636;BME280;17400;52.392;9.750;2022-10-31T00:18:55;101330.47;;;17.51;100.00
30636;BME280;17400;52.392;9.750;2022-10-31T00:21:25;101339.97;;;17.48;100.00
30636;BME280;17400;52.392;9.750;2022-10-31T00:23:53;101338.09;;;17.49;100.00
30636;BME280;17400;52.392;9.750;2022-10-31T00:26:21;101346.97;;;17.44;100.00
30636;BME280;17400;52.392;9.750;2022-10-31T00:28:48;101341.50;;;17.44;100.00
30636;BME280;17400;52.392;9.750;2022-10-31T00:31:17;101342.41;;;17.38;100.00
30636;BME280;17400;52.392;9.750;2022-10-31T00:33:45;101354.88;;;17.34;100.00
30636;BME280;17400;52.392;9.750;2022-10-31T00:36:14;101351.59;;;17.25;100.00
30636;BME280;17400;52.392;9.750;2022-10-31T00:38:44;101355.16;;;17.26;100.00
30636;BME280;17400;52.392;9.750;2022-10-31T00:41:14;101356.06;;;17.20;100.00
30636;BME280;17400;52.392;9.750;2022-10-31T00:43:43;101360.09;;;17.17;100.00
30636;BME280;17400;52.392;9.750;2022-10-31T00:46:11;101353.31;;;17.20;100.00
30636;BME280;17400;52.392;9.750;2022-10-31T00:48:39;101359.41;;;17.22;100.00
30636;BME280;17400;52.392;9.750;2022-10-31T00:51:07;101369.53;;;17.21;100.00
30636;BME280;17400;52.392;9.750;2022-10-31T00:53:38;101372.47;;;17.20;100.00
30636;BME280;17400;52.392;9.750;2022-10-31T00:56:07;101365.34;;;17.19;100.00
30636;BME280;17400;52.392;9.750;2022-10-31T00:58:35;101371.25;;;17.15;100.00
30636;BME280;17400;52.392;9.750;2022-10-31T01:01:03;101367.47;;;17.17;100.00
30636;BME280;17400;52.392;9.750;2022-10-31T01:03:32;101367.28;;;17.11;100.00
30636;BME280;17400;52.392;9.750;2022-10-31T01:06:02;101364.56;;;17.11;100.00
30636;BME280;17400;52.392;9.750;2022-10-31T01:08:30;101377.41;;;17.11;100.00
30636;BME280;17400;52.392;9.750;2022-10-31T01:11:00;101380.97;;;17.11;100.00
30636;BME280;17400;52.392;9.750;2022-10-31T01:13:31;101376.38;;;17.05;100.00
30636;BME280;17400;52.392;9.750;2022-10-31T01:16:00;101387.19;;;17.00;100.00
30636;BME280;17400;52.392;9.750;2022-10-31T01:18:28;101389.06;;;16.99;100.00
30636;BME280;17400;52.392;9.750;2022-10-31T01:20:58;101388.06;;;16.94;100.00
30636;BME280;17400;52.392;9.750;2022-10-31T01:23:26;101391.88;;;16.93;100.00
30636;BME280;17400;52.392;9.750;2022-10-31T01:26:07;101385.66;;;16.79;100.00
30636;BME280;17400;52.392;9.750;2022-10-31T01:28:38;101388.16;;;16.80;100.00
30636;BME280;17400;52.392;9.750;2022-10-31T01:31:07;101394.84;;;16.85;100.00
30636;BME280;17400;52.392;9.750;2022-10-31T01:33:36;101392.13;;;16.85;100.00
30636;BME280;17400;52.392;9.750;2022-10-31T01:36:11;101391.31;;;16.77;100.00
30636;BME280;17400;52.392;9.750;2022-10-31T01:38:40;101392.41;;;16.76;100.00
30636;BME280;17400;52.392;9.750;2022-10-31T01:41:08;101388.44;;;16.72;100.00
30636;BME280;17400;52.392;9.750;2022-10-31T01:43:46;101385.31;;;16.69;100.00
30636;BME280;17400;52.392;9.750;2022-10-31T01:46:17;101393.91;;;16.72;100.00
30636;BME280;17400;52.392;9.750;2022-10-31T01:48:45;101392.66;;;16.68;100.00
30636;BME280;17400;52.392;9.750;2022-10-31T01:51:15;101393.09;;;16.65;100.00
30636;BME280;17400;52.392;9.750;2022-10-31T01:53:45;101396.47;;;16.67;100.00
30636;BME280;17400;52.392;9.750;2022-10-31T01:56:16;101401.94;;;16.67;100.00
30636;BME280;17400;52.392;9.750;2022-10-31T01:58:47;101406.38;;;16.61;100.00
30636;BME280;17400;52.392;9.750;2022-10-31T02:01:16;101409.09;;;16.61;100.00
30636;BME280;17400;52.392;9.750;2022-10-31T02:03:45;101408.97;;;16.49;100.00
30636;BME280;17400;52.392;9.750;2022-10-31T02:06:22;101410.28;;;16.40;100.00
30636;BME280;17400;52.392;9.750;2022-10-31T02:08:54;101412.13;;;16.46;100.00
30636;BME280;17400;52.392;9.750;2022-10-31T02:11:23;101411.50;;;16.51;100.00
30636;BME280;17400;52.392;9.750;2022-10-31T02:13:52;101414.78;;;16.60;100.00
30636;BME280;17400;52.392;9.750;2022-10-31T02:16:20;101414.38;;;16.63;100.00
30636;BME280;17400;52.392;9.750;2022-10-31T02:18:48;101411.63;;;16.63;100.00
30636;BME280;17400;52.392;9.750;2022-10-31T02:21:19;101417.69;;;16.65;100.00
30636;BME280;17400;52.392;9.750;2022-10-31T02:27:08;101413.28;;;16.64;100.00
30636;BME280;17400;52.392;9.750;2022-10-31T02:29:55;101413.72;;;16.61;100.00
30636;BME280;17400;52.392;9.750;2022-10-31T02:32:38;101413.09;;;16.59;100.00
30636;BME280;17400;52.392;9.750;2022-10-31T02:35:13;101409.13;;;16.55;100.00
30636;BME280;17400;52.392;9.750;2022-10-31T02:37:52;101415.47;;;16.55;100.00
30636;BME280;17400;52.392;9.750;2022-10-31T02:40:26;101419.66;;;16.58;100.00
30636;BME280;17400;52.392;9.750;2022-10-31T02:43:00;101415.84;;;16.59;100.00
30636;BME280;17400;52.392;9.750;2022-10-31T02:45:33;101419.88;;;16.49;100.00
30636;BME280;17400;52.392;9.750;2022-10-31T02:48:08;101419.03;;;16.56;100.00
30636;BME280;17400;52.392;9.750;2022-10-31T02:50:40;101423.00;;;16.60;100.00
30636;BME280;17400;52.392;9.750;2022-10-31T02:53:09;101419.19;;;16.61;100.00
30636;BME280;17400;52.392;9.750;2022-10-31T02:55:56;101413.72;;;16.61;100.00
30636;BME280;17400;52.392;9.750;2022-10-31T02:58:30;101417.13;;;16.56;100.00
30636;BME280;17400;52.392;9.750;2022-10-31T03:01:10;101417.81;;;16.45;100.00
30636;BME280;17400;52.392;9.750;2022-10-31T03:03:53;101413.41;;;16.44;100.00
30636;BME280;17400;52.392;9.750;2022-10-31T03:06:30;101420.97;;;16.48;100.00
30636;BME280;17400;52.392;9.750;2022-10-31T03:09:03;101421.13;;;16.54;100.00
30636;BME280;17400;52.392;9.750;2022-10-31T03:11:42;101413.38;;;16.51;100.00
30636;BME280;17400;52.392;9.750;2022-10-31T03:14:16;101415.50;;;16.48;100.00
30636;BME280;17400;52.392;9.750;2022-10-31T03:16:49;101420.97;;;16.48;100.00
30636;BME280;17400;52.392;9.750;2022-10-31T03:19:23;101430.63;;;16.51;100.00
30636;BME280;17400;52.392;9.750;2022-10-31T03:21:56;101425.16;;;16.51;100.00
30636;BME280;17400;52.392;9.750;2022-10-31T03:24:29;101422.25;;;16.46;100.00
30636;BME280;17400;52.392;9.750;2022-10-31T03:26:59;101433.19;;;16.46;100.00
30636;BME280;17400;52.392;9.750;2022-10-31T03:29:30;101436.72;;;16.46;100.00
30636;BME280;17400;52.392;9.750;2022-10-31T03:32:04;101428.13;;;16.43;100.00
30636;BME280;17400;52.392;9.750;2022-10-31T03:34:36;101438.84;;;16.44;100.00
30636;BME280;17400;52.392;9.750;2022-10-31T03:37:08;101445.78;;;16.40;100.00
30636;BME280;17400;52.392;9.750;2022-10-31T03:39:37;101446.88;;;16.39;100.00
30636;BME280;17400;52.392;9.750;2022-10-31T03:42:09;101440.16;;;16.35;100.00
30636;BME280;17400;52.392;9.750;2022-10-31T03:44:41;101453.47;;;16.25;100.00
30636;BME280;17400;52.392;9.750;2022-10-31T03:47:10;101454.50;;;16.24;100.00
30636;BME280;17400;52.392;9.750;2022-10-31T03:49:39;101453.47;;;16.25;100.00
30636;BME280;17400;52.392;9.750;2022-10-31T03:52:13;101457.44;;;16.29;100.00
30636;BME280;17400;52.392;9.750;2022-10-31T03:54:45;101457.44;;;16.29;100.00
30636;BME280;17400;52.392;9.750;2022-10-31T03:57:18;101457.22;;;16.24;100.00
30636;BME280;17400;52.392;9.750;2022-10-31T03:59:51;101455.97;;;16.26;100.00
30636;BME280;17400;52.392;9.750;2022-10-31T04:02:23;101451.97;;;16.29;100.00
30636;BME280;17400;52.392;9.750;2022-10-31T04:04:55;101450.91;;;16.30;100.00
30636;BME280;17400;52.392;9.750;2022-10-31T04:07:27;101463.94;;;16.28;100.00
30636;BME280;17400;52.392;9.750;2022-10-31T04:09:57;101466.69;;;16.28;100.00
30636;BME280;17400;52.392;9.750;2022-10-31T04:12:29;101471.50;;;16.26;100.00
30636;BME280;17400;52.392;9.750;2022-10-31T04:14:58;101471.94;;;16.23;100.00
30636;BME280;17400;52.392;9.750;2022-10-31T04:17:30;101474.69;;;16.23;100.00
30636;BME280;17400;52.392;9.750;2022-10-31T04:20:01;101474.06;;;16.21;100.00
30636;BME280;17400;52.392;9.750;2022-10-31T04:22:28;101473.44;;;16.19;100.00
30636;BME280;17400;52.392;9.750;2022-10-31T04:24:56;101476.38;;;16.17;100.00
30636;BME280;17400;52.392;9.750;2022-10-31T04:27:24;101485.44;;;16.11;100.00
30636;BME280;17400;52.392;9.750;2022-10-31T04:29:52;101484.63;;;16.04;100.00
30636;BME280;17400;52.392;9.750;2022-10-31T04:32:19;101485.22;;;16.06;100.00
30636;BME280;17400;52.392;9.750;2022-10-31T04:34:47;101488.41;;;16.03;100.00
30636;BME280;17400;52.392;9.750;2022-10-31T04:37:16;101487.13;;;16.05;100.00
30636;BME280;17400;52.392;9.750;2022-10-31T04:39:44;101476.66;;;16.02;100.00
30636;BME280;17400;52.392;9.750;2022-10-31T04:42:12;101479.38;;;16.02;100.00
30636;BME280;17400;52.392;9.750;2022-10-31T04:44:39;101480.44;;;16.01;100.00
30636;BME280;17400;52.392;9.750;2022-10-31T04:47:07;101486.72;;;16.02;100.00
30636;BME280;17400;52.392;9.750;2022-10-31T04:49:35;101490.09;;;16.04;100.00
30636;BME280;17400;52.392;9.750;2022-10-31T04:52:03;101479.38;;;16.02;100.00
30636;BME280;17400;52.392;9.750;2022-10-31T04:54:32;101479.38;;;16.02;100.00
30636;BME280;17400;52.392;9.750;2022-10-31T04:56:59;101478.97;;;15.98;100.00
30636;BME280;17400;52.392;9.750;2022-10-31T04:59:27;101478.56;;;15.95;100.00
30636;BME280;17400;52.392;9.750;2022-10-31T05:01:55;101483.41;;;15.93;100.00
30636;BME280;17400;52.392;9.750;2022-10-31T05:04:23;101476.25;;;15.92;100.00
30636;BME280;17400;52.392;9.750;2022-10-31T05:06:50;101464.91;;;15.88;100.00
30636;BME280;17400;52.392;9.750;2022-10-31T05:09:18;101468.72;;;15.80;100.00
30636;BME280;17400;52.392;9.750;2022-10-31T05:11:47;101472.47;;;15.79;100.00
30636;BME280;17400;52.392;9.750;2022-10-31T05:14:15;101473.31;;;15.80;100.00
30636;BME280;17400;52.392;9.750;2022-10-31T05:16:42;101467.22;;;15.78;100.00
30636;BME280;17400;52.392;9.750;2022-10-31T05:19:10;101462.22;;;15.81;100.00
30636;BME280;17400;52.392;9.750;2022-10-31T05:21:38;101464.09;;;15.81;100.00
30636;BME280;17400;52.392;9.750;2022-10-31T05:24:06;101464.94;;;15.75;100.00
30636;BME280;17400;52.392;9.750;2022-10-31T05:26:34;101465.75;;;15.75;100.00
30636;BME280;17400;52.392;9.750;2022-10-31T05:29:03;101472.91;;;15.76;100.00
30636;BME280;17400;52.392;9.750;2022-10-31T05:31:31;101461.56;;;15.73;100.00
30636;BME280;17400;52.392;9.750;2022-10-31T05:33:59;101464.31;;;15.66;100.00
30636;BME280;17400;52.392;9.750;2022-10-31T05:36:27;101465.78;;;15.62;100.00
30636;BME280;17400;52.392;9.750;2022-10-31T05:38:56;101474.19;;;15.60;100.00
30636;BME280;17400;52.392;9.750;2022-10-31T05:41:24;101467.47;;;15.56;100.00
30636;BME280;17400;52.392;9.750;2022-10-31T05:43:52;101464.97;;;15.48;100.00
30636;BME280;17400;52.392;9.750;2022-10-31T05:46:21;101475.03;;;15.47;100.00
30636;BME280;17400;52.392;9.750;2022-10-31T05:48:49;101478.81;;;15.46;100.00
30636;BME280;17400;52.392;9.750;2022-10-31T05:51:16;101477.34;;;15.51;100.00
30636;BME280;17400;52.392;9.750;2022-10-31T05:53:45;101483.84;;;15.56;100.00
30636;BME280;17400;52.392;9.750;2022-10-31T05:56:13;101484.06;;;15.55;100.00
30636;BME280;17400;52.392;9.750;2022-10-31T05:58:41;101485.94;;;15.54;100.00
30636;BME280;17400;52.392;9.750;2022-10-31T06:01:09;101484.91;;;15.48;100.00
30636;BME280;17400;52.392;9.750;2022-10-31T06:03:38;101478.81;;;15.46;100.00
30636;BME280;17400;52.392;9.750;2022-10-31T06:06:06;101475.47;;;15.44;100.00
30636;BME280;17400;52.392;9.750;2022-10-31T06:08:35;101479.22;;;15.43;100.00
30636;BME280;17400;52.392;9.750;2022-10-31T06:11:02;101476.94;;;15.40;100.00
30636;BME280;17400;52.392;9.750;2022-10-31T06:13:30;101480.28;;;15.42;100.00
30636;BME280;17400;52.392;9.750;2022-10-31T06:15:58;101482.41;;;15.40;100.00
30636;BME280;17400;52.392;9.750;2022-10-31T06:18:26;101482.78;;;15.37;100.00
30636;BME280;17400;52.392;9.750;2022-10-31T06:20:55;101477.16;;;15.32;100.00
30636;BME280;17400;52.392;9.750;2022-10-31T06:23:22;101477.16;;;15.32;100.00
30636;BME280;17400;52.392;9.750;2022-10-31T06:25:50;101482.41;;;15.33;100.00
30636;BME280;17400;52.392;9.750;2022-10-31T06:28:18;101474.59;;;15.37;100.00
30636;BME280;17400;52.392;9.750;2022-10-31T06:30:46;101477.97;;;15.39;100.00
30636;BME280;17400;52.392;9.750;2022-10-31T06:33:14;101485.34;;;15.39;100.00
30636;BME280;17400;52.392;9.750;2022-10-31T06:35:47;101491.63;;;15.39;100.00
30636;BME280;17400;52.392;9.750;2022-10-31T06:38:16;101495.38;;;15.38;100.00
30636;BME280;17400;52.392;9.750;2022-10-31T06:40:44;101494.78;;;15.29;100.00
30636;BME280;17400;52.392;9.750;2022-10-31T06:43:12;101493.09;;;15.28;100.00
30636;BME280;17400;52.392;9.750;2022-10-31T06:45:41;101493.91;;;15.29;100.00
30636;BME280;17400;52.392;9.750;2022-10-31T06:48:08;101504.00;;;15.35;100.00
30636;BME280;17400;52.392;9.750;2022-10-31T06:50:43;101501.88;;;15.37;100.00
30636;BME280;17400;52.392;9.750;2022-10-31T06:53:11;101508.81;;;15.40;100.00
30636;BME280;17400;52.392;9.750;2022-10-31T06:55:41;101512.19;;;15.35;100.00
30636;BME280;17400;52.392;9.750;2022-10-31T06:58:10;101504.84;;;15.29;100.00
30636;BME280;17400;52.392;9.750;2022-10-31T07:00:38;101510.50;;;15.27;100.00
30636;BME280;17400;52.392;9.750;2022-10-31T07:03:09;101520.97;;;15.24;100.00
30636;BME280;17400;52.392;9.750;2022-10-31T07:05:37;101527.09;;;15.26;100.00
30636;BME280;17400;52.392;9.750;2022-10-31T07:08:06;101518.03;;;15.25;100.00
30636;BME280;17400;52.392;9.750;2022-10-31T07:10:36;101524.78;;;15.23;100.00
30636;BME280;17400;52.392;9.750;2022-10-31T07:13:14;101524.13;;;15.21;100.00
30636;BME280;17400;52.392;9.750;2022-10-31T07:15:42;101532.53;;;15.19;100.00
30636;BME280;17400;52.392;9.750;2022-10-31T07:18:11;101525.59;;;15.16;100.00
30636;BME280;17400;52.392;9.750;2022-10-31T07:20:39;101537.56;;;15.15;100.00
30636;BME280;17400;52.392;9.750;2022-10-31T07:23:08;101540.28;;;15.09;100.00
30636;BME280;17400;52.392;9.750;2022-10-31T07:25:36;101546.56;;;15.09;100.00
30636;BME280;17400;52.392;9.750;2022-10-31T07:28:04;101543.81;;;15.09;100.00
30636;BME280;17400;52.392;9.750;2022-10-31T07:30:34;101547.41;;;15.03;100.00
30636;BME280;17400;52.392;9.750;2022-10-31T07:33:01;101541.50;;;14.93;100.00
30636;BME280;17400;52.392;9.750;2022-10-31T07:35:29;101538.78;;;14.93;100.00
30636;BME280;17400;52.392;9.750;2022-10-31T07:37:57;101535.84;;;14.94;100.00
30636;BME280;17400;52.392;9.750;2022-10-31T07:40:26;101534.59;;;14.97;100.00
30636;BME280;17400;52.392;9.750;2022-10-31T07:42:53;101538.56;;;15.01;100.00
30636;BME280;17400;52.392;9.750;2022-10-31T07:45:21;101540.28;;;15.09;100.00
30636;BME280;17400;52.392;9.750;2022-10-31T07:47:51;101540.91;;;15.11;100.00
30636;BME280;17400;52.392;9.750;2022-10-31T07:50:20;101551.84;;;15.18;100.00
30636;BME280;17400;52.392;9.750;2022-10-31T07:52:58;101536.94;;;15.20;100.00
30636;BME280;17400;52.392;9.750;2022-10-31T07:55:26;101534.63;;;15.24;100.00
30636;BME280;17400;52.392;9.750;2022-10-31T07:57:58;101540.72;;;15.26;100.00
30636;BME280;17400;52.392;9.750;2022-10-31T08:00:27;101539.25;;;15.30;100.00
30636;BME280;17400;52.392;9.750;2022-10-31T08:03:00;101542.81;;;15.24;100.00
30636;BME280;17400;52.392;9.750;2022-10-31T08:05:30;101536.94;;;15.13;100.00
30636;BME280;17400;52.392;9.750;2022-10-31T08:07:58;101539.66;;;15.20;100.00
30636;BME280;17400;52.392;9.750;2022-10-31T08:10:27;101539.88;;;15.25;100.00
30636;BME280;17400;52.392;9.750;2022-10-31T08:12:56;101529.16;;;15.37;100.00
30636;BME280;17400;52.392;9.750;2022-10-31T08:15:25;101531.28;;;15.42;100.00
30636;BME280;17400;52.392;9.750;2022-10-31T08:17:53;101531.72;;;15.45;100.00
30636;BME280;17400;52.392;9.750;2022-10-31T08:20:25;101535.28;;;15.53;100.00
30636;BME280;17400;52.392;9.750;2022-10-31T08:22:54;101539.91;;;15.59;100.00
30636;BME280;17400;52.392;9.750;2022-10-31T08:25:23;101539.69;;;15.60;100.00
30636;BME280;17400;52.392;9.750;2022-10-31T08:27:51;101537.59;;;15.62;100.00
30636;BME280;17400;52.392;9.750;2022-10-31T08:30:20;101542.63;;;15.72;100.00
30636;BME280;17400;52.392;9.750;2022-10-31T08:32:57;101536.56;;;15.84;100.00
30636;BME280;17400;52.392;9.750;2022-10-31T08:35:26;101527.47;;;15.96;100.00
30636;BME280;17400;52.392;9.750;2022-10-31T08:37:54;101524.75;;;16.03;100.00
30636;BME280;17400;52.392;9.750;2022-10-31T08:40:22;101524.53;;;16.11;100.00
30636;BME280;17400;52.392;9.750;2022-10-31T08:42:56;101525.78;;;16.15;100.00
30636;BME280;17400;52.392;9.750;2022-10-31T08:45:24;101518.81;;;16.20;100.00
30636;BME280;17400;52.392;9.750;2022-10-31T08:47:52;101524.91;;;16.22;100.00
30636;BME280;17400;52.392;9.750;2022-10-31T08:50:26;101520.91;;;16.24;100.00
30636;BME280;17400;52.392;9.750;2022-10-31T08:53:00;101509.59;;;16.21;100.00
30636;BME280;17400;52.392;9.750;2022-10-31T08:55:33;101497.81;;;16.20;100.00
30636;BME280;17400;52.392;9.750;2022-10-31T08:58:02;101499.03;;;16.24;100.00
30636;BME280;17400;52.392;9.750;2022-10-31T09:00:30;101503.66;;;16.30;100.00
30636;BME280;17400;52.392;9.750;2022-10-31T09:02:59;101495.22;;;16.32;100.00
30636;BME280;17400;52.392;9.750;2022-10-31T09:05:29;101497.13;;;16.38;100.00
30636;BME280;17400;52.392;9.750;2022-10-31T09:07:57;101499.59;;;16.46;100.00
30636;BME280;17400;52.392;9.750;2022-10-31T09:10:28;101501.03;;;16.56;100.00
30636;BME280;17400;52.392;9.750;2022-10-31T09:12:57;101496.56;;;16.61;100.00
30636;BME280;17400;52.392;9.750;2022-10-31T09:15:26;101499.50;;;16.66;100.00
30636;BME280;17400;52.392;9.750;2022-10-31T09:17:54;101509.16;;;16.69;100.00
30636;BME280;17400;52.392;9.750;2022-10-31T09:20:22;101504.50;;;16.76;100.00
30636;BME280;17400;52.392;9.750;2022-10-31T09:22:56;101508.84;;;16.84;100.00
30636;BME280;17400;52.392;9.750;2022-10-31T09:25:25;101511.63;;;16.77;100.00
30636;BME280;17400;52.392;9.750;2022-10-31T09:27:55;101508.53;;;16.67;100.00
30636;BME280;17400;52.392;9.750;2022-10-31T09:30:24;101510.16;;;16.75;100.00
30636;BME280;17400;52.392;9.750;2022-10-31T09:32:55;101514.34;;;16.77;100.00
30636;BME280;17400;52.392;9.750;2022-10-31T09:35:23;101514.53;;;16.82;100.00
30636;BME280;17400;52.392;9.750;2022-10-31T09:37:56;101505.06;;;16.85;100.00
30636;BME280;17400;52.392;9.750;2022-10-31T09:40:31;101507.13;;;16.96;100.00
30636;BME280;17400;52.392;9.750;2022-10-31T09:43:07;101506.41;;;17.08;100.00
30636;BME280;17400;52.392;9.750;2022-10-31T09:45:40;101500.88;;;17.14;100.00
30636;BME280;17400;52.392;9.750;2022-10-31T09:48:17;101503.81;;;17.20;100.00
30636;BME280;17400;52.392;9.750;2022-10-31T09:50:52;101497.09;;;17.15;100.00
30636;BME280;17400;52.392;9.750;2022-10-31T09:53:27;101489.94;;;17.14;100.00
30636;BME280;17400;52.392;9.750;2022-10-31T09:55:58;101493.38;;;17.10;100.00
30636;BME280;17400;52.392;9.750;2022-10-31T09:58:28;101494.47;;;17.02;100.00
30636;BME280;17400;52.392;9.750;2022-10-31T10:01:03;101496.84;;;16.92;100.00
30636;BME280;17400;52.392;9.750;2022-10-31T10:03:36;101497.06;;;16.90;100.00
30636;BME280;17400;52.392;9.750;2022-10-31T10:06:12;101494.13;;;16.85;100.00
30636;BME280;17400;52.392;9.750;2022-10-31T10:08:43;101495.03;;;16.79;100.00
30636;BME280;17400;52.392;9.750;2022-10-31T10:11:32;101490.34;;;16.86;100.00
30636;BME280;17400;52.392;9.750;2022-10-31T10:14:13;101487.59;;;16.93;100.00
30636;BME280;17400;52.392;9.750;2022-10-31T10:16:57;101489.88;;;16.96;100.00
30636;BME280;17400;52.392;9.750;2022-10-31T10:19:38;101490.94;;;16.95;100.00
30636;BME280;17400;52.392;9.750;2022-10-31T10:22:12;101474.78;;;16.80;100.00
30636;BME280;17400;52.392;9.750;2022-10-31T10:24:59;101484.72;;;16.74;100.00
30636;BME280;17400;52.392;9.750;2022-10-31T10:27:41;101488.06;;;16.83;100.00
30636;BME280;17400;52.392;9.750;2022-10-31T10:30:15;101472.09;;;16.73;100.00
30636;BME280;17400;52.392;9.750;2022-10-31T10:32:46;101473.16;;;16.79;100.00
30636;BME280;17400;52.392;9.750;2022-10-31T10:35:23;101469.50;;;16.85;100.00
30636;BME280;17400;52.392;9.750;2022-10-31T10:37:53;101476.66;;;16.86;100.00
30636;BME280;17400;52.392;9.750;2022-10-31T10:40:27;101471.41;;;16.85;100.00
30636;BME280;17400;52.392;9.750;2022-10-31T10:42:59;101471.41;;;16.91;100.00
30636;BME280;17400;52.392;9.750;2022-10-31T10:45:53;101467.75;;;17.04;100.00
30636;BME280;17400;52.392;9.750;2022-10-31T10:48:44;101456.56;;;17.06;100.00
30636;BME280;17400;52.392;9.750;2022-10-31T10:51:20;101456.34;;;17.07;100.00
30636;BME280;17400;52.392;9.750;2022-10-31T10:54:36;101455.16;;;16.96;100.00
30636;BME280;17400;52.392;9.750;2022-10-31T10:57:22;101462.97;;;16.93;100.00
30636;BME280;17400;52.392;9.750;2022-10-31T10:59:55;101469.44;;;16.98;100.00
30636;BME280;17400;52.392;9.750;2022-10-31T11:02:24;101463.59;;;16.95;100.00
30636;BME280;17400;52.392;9.750;2022-10-31T11:04:54;101456.81;;;17.04;100.00
30636;BME280;17400;52.392;9.750;2022-10-31T11:07:22;101444.94;;;17.10;100.00
30636;BME280;17400;52.392;9.750;2022-10-31T11:09:50;101445.00;;;17.04;100.00
30636;BME280;17400;52.392;9.750;2022-10-31T11:12:22;101450.59;;;17.15;100.00
30636;BME280;17400;52.392;9.750;2022-10-31T11:14:52;101450.41;;;17.10;100.00
30636;BME280;17400;52.392;9.750;2022-10-31T11:17:27;101436.97;;;17.09;100.00
30636;BME280;17400;52.392;9.750;2022-10-31T11:20:20;101435.19;;;17.21;100.00
30636;BME280;17400;52.392;9.750;2022-10-31T11:23:00;101430.03;;;17.31;100.00
30636;BME280;17400;52.392;9.750;2022-10-31T11:25:29;101433.41;;;17.34;100.00
30636;BME280;17400;52.392;9.750;2022-10-31T11:28:03;101425.59;;;17.37;100.00
30636;BME280;17400;52.392;9.750;2022-10-31T11:30:36;101426.63;;;17.36;100.00
30636;BME280;17400;52.392;9.750;2022-10-31T11:33:16;101422.44;;;17.34;100.00
30636;BME280;17400;52.392;9.750;2022-10-31T11:35:45;101410.97;;;17.43;100.00
30636;BME280;17400;52.392;9.750;2022-10-31T11:38:20;101410.75;;;17.45;100.00
30636;BME280;17400;52.392;9.750;2022-10-31T11:40:54;101411.75;;;17.51;100.00
30636;BME280;17400;52.392;9.750;2022-10-31T11:43:25;101405.81;;;17.54;100.00
30636;BME280;17400;52.392;9.750;2022-10-31T11:45:54;101418.00;;;17.58;100.00
30636;BME280;17400;52.392;9.750;2022-10-31T11:48:23;101403.09;;;17.54;100.00
30636;BME280;17400;52.392;9.750;2022-10-31T11:50:55;101409.94;;;17.63;100.00
30636;BME280;17400;52.392;9.750;2022-10-31T11:53:28;101399.97;;;17.69;100.00
30636;BME280;17400;52.392;9.750;2022-10-31T11:56:05;101396.09;;;17.76;100.00
30636;BME280;17400;52.392;9.750;2022-10-31T11:58:35;101396.41;;;17.87;100.00
30636;BME280;17400;52.392;9.750;2022-10-31T12:01:03;101394.72;;;17.86;100.00
30636;BME280;17400;52.392;9.750;2022-10-31T12:03:42;101395.53;;;17.93;100.00
30636;BME280;17400;52.392;9.750;2022-10-31T12:06:18;101397.78;;;17.96;100.00
30636;BME280;17400;52.392;9.750;2022-10-31T12:08:47;101394.81;;;17.97;100.00
30636;BME280;17400;52.392;9.750;2022-10-31T12:11:27;101385.78;;;17.97;100.00
30636;BME280;17400;52.392;9.750;2022-10-31T12:14:18;101378.00;;;17.94;100.00
30636;BME280;17400;52.392;9.750;2022-10-31T12:16:55;101373.75;;;17.98;100.00
30636;BME280;17400;52.392;9.750;2022-10-31T12:19:35;101366.28;;;18.05;100.00
30636;BME280;17400;52.392;9.750;2022-10-31T12:22:13;101369.94;;;17.99;100.00
30636;BME280;17400;52.392;9.750;2022-10-31T12:24:54;101372.81;;;18.04;100.00
30636;BME280;17400;52.392;9.750;2022-10-31T12:27:35;101374.50;;;18.05;100.00
30636;BME280;17400;52.392;9.750;2022-10-31T12:30:15;101371.13;;;18.03;100.00
30636;BME280;17400;52.392;9.750;2022-10-31T12:32:59;101363.91;;;18.09;100.00
30636;BME280;17400;52.392;9.750;2022-10-31T12:35:40;101364.31;;;18.12;100.00
30636;BME280;17400;52.392;9.750;2022-10-31T12:38:26;101355.84;;;18.14;100.00
30636;BME280;17400;52.392;9.750;2022-10-31T12:41:07;101349.97;;;18.10;100.00
30636;BME280;17400;52.392;9.750;2022-10-31T12:43:45;101358.44;;;18.09;100.00
30636;BME280;17400;52.392;9.750;2022-10-31T12:46:24;101356.19;;;18.18;100.00
30636;BME280;17400;52.392;9.750;2022-10-31T12:49:16;101348.25;;;18.28;100.00
30636;BME280;17400;52.392;9.750;2022-10-31T12:51:58;101354.84;;;18.39;100.00
30636;BME280;17400;52.392;9.750;2022-10-31T12:54:40;101342.34;;;18.43;100.00
30636;BME280;17400;52.392;9.750;2022-10-31T12:57:21;101328.88;;;18.41;100.00
30636;BME280;17400;52.392;9.750;2022-10-31T12:59:55;101333.91;;;18.44;100.00
30636;BME280;17400;52.392;9.750;2022-10-31T13:02:28;101330.53;;;18.42;100.00
30636;BME280;17400;52.392;9.750;2022-10-31T13:04:58;101330.41;;;18.37;100.00
30636;BME280;17400;52.392;9.750;2022-10-31T13:07:31;101318.84;;;18.35;100.00